sensor_id;sensor_type;location;lat;lon;timestamp;temperature;humidity
8715;DHT22;4394;51.208;8.904;2023-06-10T00:01:21;19.40;99.90
8715;DHT22;4394;51.208;8.904;2023-06-10T00:04:10;19.30;99.90
8715;DHT22;4394;51.208;8.904;2023-06-10T00:06:58;19.50;99.90
8715;DHT22;4394;51.208;8.904;2023-06-10T00:09:46;19.50;99.90
8715;DHT22;4394;51.208;8.904;2023-06-10T00:12:34;19.40;99.90
8715;DHT22;4394;51.208;8.904;2023-06-10T00:15:23;19.30;99.90
8715;DHT22;4394;51.208;8.904;2023-06-10T00:18:13;19.30;99.90
8715;DHT22;4394;51.208;8.904;2023-06-10T00:21:02;19.20;99.90
8715;DHT22;4394;51.208;8.904;2023-06-10T00:23:51;19.10;99.90
8715;DHT22;4394;51.208;8.904;2023-06-10T00:26:39;19.10;99.90
8715;DHT22;4394;51.208;8.904;2023-06-10T00:29:27;19.10;99.90
8715;DHT22;4394;51.208;8.904;2023-06-10T00:32:15;19.00;99.90
8715;DHT22;4394;51.208;8.904;2023-06-10T00:35:05;19.00;99.90
8715;DHT22;4394;51.208;8.904;2023-06-10T00:37:54;18.90;99.90
8715;DHT22;4394;51.208;8.904;2023-06-10T00:40:42;18.90;99.90
8715;DHT22;4394;51.208;8.904;2023-06-10T00:43:30;18.90;99.90
8715;DHT22;4394;51.208;8.904;2023-06-10T00:46:18;18.80;99.90
8715;DHT22;4394;51.208;8.904;2023-06-10T00:49:07;18.80;99.90
8715;DHT22;4394;51.208;8.904;2023-06-10T00:51:57;18.70;99.90
8715;DHT22;4394;51.208;8.904;2023-06-10T00:54:46;18.70;99.90
8715;DHT22;4394;51.208;8.904;2023-06-10T00:57:34;18.70;99.90
8715;DHT22;4394;51.208;8.904;2023-06-10T01:00:22;18.70;99.90
8715;DHT22;4394;51.208;8.904;2023-06-10T01:03:10;18.60;99.90
8715;DHT22;4394;51.208;8.904;2023-06-10T01:06:06;18.60;99.90
8715;DHT22;4394;51.208;8.904;2023-06-10T01:09:06;18.60;99.90
8715;DHT22;4394;51.208;8.904;2023-06-10T01:12:02;18.60;99.90
8715;DHT22;4394;51.208;8.904;2023-06-10T01:14:55;18.60;99.90
8715;DHT22;4394;51.208;8.904;2023-06-10T01:17:56;18.50;99.90
8715;DHT22;4394;51.208;8.904;2023-06-10T01:20:46;18.50;99.90
8715;DHT22;4394;51.208;8.904;2023-06-10T01:23:39;18.50;99.90
8715;DHT22;4394;51.208;8.904;2023-06-10T01:26:30;18.40;99.90
8715;DHT22;4394;51.208;8.904;2023-06-10T01:29:23;18.30;99.90
8715;DHT22;4394;51.208;8.904;2023-06-10T01:32:17;18.70;99.90
8715;DHT22;4394;51.208;8.904;2023-06-10T01:35:08;18.50;99.90
8715;DHT22;4394;51.208;8.904;2023-06-10T01:37:58;18.30;99.90
8715;DHT22;4394;51.208;8.904;2023-06-10T01:40:49;18.20;99.90
8715;DHT22;4394;51.208;8.904;2023-06-10T01:43:39;18.10;99.90
8715;DHT22;4394;51.208;8.904;2023-06-10T01:46:27;18.10;99.90
8715;DHT22;4394;51.208;8.904;2023-06-10T01:49:16;18.00;99.90
8715;DHT22;4394;51.208;8.904;2023-06-10T01:52:05;18.00;99.90
8715;DHT22;4394;51.208;8.904;2023-06-10T01:54:53;18.00;99.90
8715;DHT22;4394;51.208;8.904;2023-06-10T01:57:42;18.00;99.90
8715;DHT22;4394;51.208;8.904;2023-06-10T02:00:30;17.90;99.90
8715;DHT22;4394;51.208;8.904;2023-06-10T02:03:18;17.90;99.90
8715;DHT22;4394;51.208;8.904;2023-06-10T02:06:07;17.90;99.90
8715;DHT22;4394;51.208;8.904;2023-06-10T02:08:55;17.80;99.90
8715;DHT22;4394;51.208;8.904;2023-06-10T02:11:43;17.80;99.90
8715;DHT22;4394;51.208;8.904;2023-06-10T02:14:33;17.80;99.90
8715;DHT22;4394;51.208;8.904;2023-06-10T02:17:21;17.80;99.90
8715;DHT22;4394;51.208;8.904;2023-06-10T02:20:10;17.80;99.90
8715;DHT22;4394;51.208;8.904;2023-06-10T02:23:00;17.70;99.90
8715;DHT22;4394;51.208;8.904;2023-06-10T02:25:48;17.70;99.90
8715;DHT22;4394;51.208;8.904;2023-06-10T02:28:36;17.60;99.90
8715;DHT22;4394;51.208;8.904;2023-06-10T02:31:25;17.50;99.90
8715;DHT22;4394;51.208;8.904;2023-06-10T02:34:15;17.50;99.90
8715;DHT22;4394;51.208;8.904;2023-06-10T02:37:04;17.50;99.90
8715;DHT22;4394;51.208;8.904;2023-06-10T02:39:52;17.40;99.90
8715;DHT22;4394;51.208;8.904;2023-06-10T02:42:40;17.30;99.90
8715;DHT22;4394;51.208;8.904;2023-06-10T02:45:28;17.30;99.90
8715;DHT22;4394;51.208;8.904;2023-06-10T02:48:17;17.30;99.90
8715;DHT22;4394;51.208;8.904;2023-06-10T02:51:05;17.30;99.90
8715;DHT22;4394;51.208;8.904;2023-06-10T02:53:53;17.30;99.90
8715;DHT22;4394;51.208;8.904;2023-06-10T02:56:42;17.30;99.90
8715;DHT22;4394;51.208;8.904;2023-06-10T02:59:30;17.30;99.90
8715;DHT22;4394;51.208;8.904;2023-06-10T03:02:18;17.20;99.90
8715;DHT22;4394;51.208;8.904;2023-06-10T03:05:08;17.20;99.90
8715;DHT22;4394;51.208;8.904;2023-06-10T03:07:58;17.20;99.90
8715;DHT22;4394;51.208;8.904;2023-06-10T03:10:46;17.30;99.90
8715;DHT22;4394;51.208;8.904;2023-06-10T03:13:34;17.20;99.90
8715;DHT22;4394;51.208;8.904;2023-06-10T03:16:23;17.10;99.90
8715;DHT22;4394;51.208;8.904;2023-06-10T03:19:12;17.00;99.90
8715;DHT22;4394;51.208;8.904;2023-06-10T03:22:09;16.90;99.90
8715;DHT22;4394;51.208;8.904;2023-06-10T03:24:57;17.10;99.90
8715;DHT22;4394;51.208;8.904;2023-06-10T03:27:46;17.00;99.90
8715;DHT22;4394;51.208;8.904;2023-06-10T03:30:35;16.90;99.90
8715;DHT22;4394;51.208;8.904;2023-06-10T03:33:23;16.90;99.90
8715;DHT22;4394;51.208;8.904;2023-06-10T03:36:12;17.00;99.90
8715;DHT22;4394;51.208;8.904;2023-06-10T03:39:01;16.90;99.90
8715;DHT22;4394;51.208;8.904;2023-06-10T03:41:50;16.90;99.90
8715;DHT22;4394;51.208;8.904;2023-06-10T03:44:38;16.90;99.90
8715;DHT22;4394;51.208;8.904;2023-06-10T03:47:26;16.90;99.90
8715;DHT22;4394;51.208;8.904;2023-06-10T03:50:14;16.90;99.90
8715;DHT22;4394;51.208;8.904;2023-06-10T03:53:03;16.90;99.90
8715;DHT22;4394;51.208;8.904;2023-06-10T03:55:52;17.00;99.90
8715;DHT22;4394;51.208;8.904;2023-06-10T03:58:40;16.90;99.90
8715;DHT22;4394;51.208;8.904;2023-06-10T04:01:32;16.90;99.90
8715;DHT22;4394;51.208;8.904;2023-06-10T04:04:22;17.00;99.90
8715;DHT22;4394;51.208;8.904;2023-06-10T04:07:11;17.00;99.90
8715;DHT22;4394;51.208;8.904;2023-06-10T04:10:00;17.00;99.90
8715;DHT22;4394;51.208;8.904;2023-06-10T04:12:50;17.00;99.90
8715;DHT22;4394;51.208;8.904;2023-06-10T04:15:39;16.90;99.90
8715;DHT22;4394;51.208;8.904;2023-06-10T04:18:27;17.00;99.90
8715;DHT22;4394;51.208;8.904;2023-06-10T04:21:16;17.00;99.90
8715;DHT22;4394;51.208;8.904;2023-06-10T04:24:06;17.20;99.90
8715;DHT22;4394;51.208;8.904;2023-06-10T04:26:54;17.00;99.90
8715;DHT22;4394;51.208;8.904;2023-06-10T04:29:43;17.00;99.90
8715;DHT22;4394;51.208;8.904;2023-06-10T04:32:32;17.00;99.90
8715;DHT22;4394;51.208;8.904;2023-06-10T04:35:20;17.00;99.90
8715;DHT22;4394;51.208;8.904;2023-06-10T04:38:08;17.10;99.90
8715;DHT22;4394;51.208;8.904;2023-06-10T04:40:56;17.10;99.90
8715;DHT22;4394;51.208;8.904;2023-06-10T04:43:44;17.10;99.90
8715;DHT22;4394;51.208;8.904;2023-06-10T04:46:34;17.10;99.90
8715;DHT22;4394;51.208;8.904;2023-06-10T04:49:22;17.20;99.90
8715;DHT22;4394;51.208;8.904;2023-06-10T04:52:10;17.20;99.90
8715;DHT22;4394;51.208;8.904;2023-06-10T04:54:59;17.20;99.90
8715;DHT22;4394;51.208;8.904;2023-06-10T04:57:47;17.20;99.90
8715;DHT22;4394;51.208;8.904;2023-06-10T05:00:38;17.30;99.90
8715;DHT22;4394;51.208;8.904;2023-06-10T05:03:27;17.30;99.90
8715;DHT22;4394;51.208;8.904;2023-06-10T05:06:16;17.40;99.90
8715;DHT22;4394;51.208;8.904;2023-06-10T05:09:03;17.40;99.90
8715;DHT22;4394;51.208;8.904;2023-06-10T05:11:52;17.40;99.90
8715;DHT22;4394;51.208;8.904;2023-06-10T05:14:40;17.50;99.90
8715;DHT22;4394;51.208;8.904;2023-06-10T05:17:28;17.50;99.90
8715;DHT22;4394;51.208;8.904;2023-06-10T05:20:18;17.50;99.90
8715;DHT22;4394;51.208;8.904;2023-06-10T05:23:06;17.60;99.90
8715;DHT22;4394;51.208;8.904;2023-06-10T05:25:54;17.60;99.90
8715;DHT22;4394;51.208;8.904;2023-06-10T05:28:43;17.60;99.90
8715;DHT22;4394;51.208;8.904;2023-06-10T05:31:31;17.70;99.90
8715;DHT22;4394;51.208;8.904;2023-06-10T05:34:19;17.70;99.90
8715;DHT22;4394;51.208;8.904;2023-06-10T05:37:09;17.80;99.90
8715;DHT22;4394;51.208;8.904;2023-06-10T05:39:57;17.80;99.90
8715;DHT22;4394;51.208;8.904;2023-06-10T05:42:45;17.90;99.90
8715;DHT22;4394;51.208;8.904;2023-06-10T05:45:32;17.90;99.90
8715;DHT22;4394;51.208;8.904;2023-06-10T05:48:21;18.00;99.90
8715;DHT22;4394;51.208;8.904;2023-06-10T05:51:09;18.10;99.90
8715;DHT22;4394;51.208;8.904;2023-06-10T05:53:59;18.10;99.90
8715;DHT22;4394;51.208;8.904;2023-06-10T05:56:47;18.20;99.90
8715;DHT22;4394;51.208;8.904;2023-06-10T05:59:35;18.20;99.90
8715;DHT22;4394;51.208;8.904;2023-06-10T06:02:23;18.30;99.90
8715;DHT22;4394;51.208;8.904;2023-06-10T06:05:11;18.40;99.90
8715;DHT22;4394;51.208;8.904;2023-06-10T06:08:00;18.50;99.90
8715;DHT22;4394;51.208;8.904;2023-06-10T06:10:50;18.60;99.90
8715;DHT22;4394;51.208;8.904;2023-06-10T06:13:38;18.60;99.90
8715;DHT22;4394;51.208;8.904;2023-06-10T06:16:26;18.70;99.90
8715;DHT22;4394;51.208;8.904;2023-06-10T06:19:14;18.80;99.90
8715;DHT22;4394;51.208;8.904;2023-06-10T06:22:03;18.90;99.90
8715;DHT22;4394;51.208;8.904;2023-06-10T06:24:51;18.90;99.90
8715;DHT22;4394;51.208;8.904;2023-06-10T06:27:41;19.00;99.90
8715;DHT22;4394;51.208;8.904;2023-06-10T06:30:29;19.10;99.90
8715;DHT22;4394;51.208;8.904;2023-06-10T06:33:17;19.20;99.90
8715;DHT22;4394;51.208;8.904;2023-06-10T06:36:05;19.20;99.90
8715;DHT22;4394;51.208;8.904;2023-06-10T06:38:53;19.30;99.90
8715;DHT22;4394;51.208;8.904;2023-06-10T06:41:41;19.40;99.90
8715;DHT22;4394;51.208;8.904;2023-06-10T06:44:31;19.50;99.90
8715;DHT22;4394;51.208;8.904;2023-06-10T06:47:18;19.50;99.90
8715;DHT22;4394;51.208;8.904;2023-06-10T06:50:07;19.60;99.90
8715;DHT22;4394;51.208;8.904;2023-06-10T06:52:56;19.70;99.90
8715;DHT22;4394;51.208;8.904;2023-06-10T06:55:44;19.70;99.90
8715;DHT22;4394;51.208;8.904;2023-06-10T06:58:32;19.80;99.90
8715;DHT22;4394;51.208;8.904;2023-06-10T07:01:21;19.90;99.90
8715;DHT22;4394;51.208;8.904;2023-06-10T07:04:10;20.00;99.90
8715;DHT22;4394;51.208;8.904;2023-06-10T07:06:58;20.10;99.90
8715;DHT22;4394;51.208;8.904;2023-06-10T07:09:46;20.20;99.90
8715;DHT22;4394;51.208;8.904;2023-06-10T07:12:34;20.20;99.90
8715;DHT22;4394;51.208;8.904;2023-06-10T07:15:22;20.30;99.90
8715;DHT22;4394;51.208;8.904;2023-06-10T07:18:11;20.40;99.90
8715;DHT22;4394;51.208;8.904;2023-06-10T07:20:59;20.40;99.90
8715;DHT22;4394;51.208;8.904;2023-06-10T07:23:47;20.40;99.90
8715;DHT22;4394;51.208;8.904;2023-06-10T07:26:35;20.50;99.90
8715;DHT22;4394;51.208;8.904;2023-06-10T07:29:23;20.60;99.90
8715;DHT22;4394;51.208;8.904;2023-06-10T07:32:11;20.70;99.90
8715;DHT22;4394;51.208;8.904;2023-06-10T07:35:01;20.80;99.90
8715;DHT22;4394;51.208;8.904;2023-06-10T07:37:49;20.90;99.90
8715;DHT22;4394;51.208;8.904;2023-06-10T07:40:37;21.00;99.90
8715;DHT22;4394;51.208;8.904;2023-06-10T07:43:25;21.00;99.90
8715;DHT22;4394;51.208;8.904;2023-06-10T07:46:13;21.10;99.90
8715;DHT22;4394;51.208;8.904;2023-06-10T07:49:01;21.20;99.90
8715;DHT22;4394;51.208;8.904;2023-06-10T07:51:50;21.30;99.90
8715;DHT22;4394;51.208;8.904;2023-06-10T07:54:38;21.40;99.90
8715;DHT22;4394;51.208;8.904;2023-06-10T07:57:26;21.50;99.90
8715;DHT22;4394;51.208;8.904;2023-06-10T08:00:15;21.60;99.90
8715;DHT22;4394;51.208;8.904;2023-06-10T08:03:03;21.60;99.90
8715;DHT22;4394;51.208;8.904;2023-06-10T08:05:51;21.70;99.90
8715;DHT22;4394;51.208;8.904;2023-06-10T08:08:41;21.70;99.90
8715;DHT22;4394;51.208;8.904;2023-06-10T08:11:30;21.90;99.90
8715;DHT22;4394;51.208;8.904;2023-06-10T08:14:18;21.90;99.90
8715;DHT22;4394;51.208;8.904;2023-06-10T08:17:06;22.00;99.90
8715;DHT22;4394;51.208;8.904;2023-06-10T08:19:54;22.00;99.90
8715;DHT22;4394;51.208;8.904;2023-06-10T08:22:43;22.10;99.90
8715;DHT22;4394;51.208;8.904;2023-06-10T08:25:32;22.20;99.90
8715;DHT22;4394;51.208;8.904;2023-06-10T08:28:20;22.20;99.90
8715;DHT22;4394;51.208;8.904;2023-06-10T08:31:08;22.30;99.90
8715;DHT22;4394;51.208;8.904;2023-06-10T08:33:56;22.40;99.90
8715;DHT22;4394;51.208;8.904;2023-06-10T08:36:44;22.40;99.90
8715;DHT22;4394;51.208;8.904;2023-06-10T08:39:32;22.50;99.90
8715;DHT22;4394;51.208;8.904;2023-06-10T08:42:24;22.60;99.90
8715;DHT22;4394;51.208;8.904;2023-06-10T08:45:17;22.70;99.90
8715;DHT22;4394;51.208;8.904;2023-06-10T08:48:06;22.80;99.90
8715;DHT22;4394;51.208;8.904;2023-06-10T08:50:55;22.90;99.90
8715;DHT22;4394;51.208;8.904;2023-06-10T08:53:50;23.00;99.90
8715;DHT22;4394;51.208;8.904;2023-06-10T08:56:41;23.00;99.90
8715;DHT22;4394;51.208;8.904;2023-06-10T08:59:31;23.10;99.90
8715;DHT22;4394;51.208;8.904;2023-06-10T09:02:20;23.20;99.90
8715;DHT22;4394;51.208;8.904;2023-06-10T09:05:08;23.30;99.90
8715;DHT22;4394;51.208;8.904;2023-06-10T09:07:57;23.40;99.90
8715;DHT22;4394;51.208;8.904;2023-06-10T09:10:47;23.50;99.90
8715;DHT22;4394;51.208;8.904;2023-06-10T09:13:35;23.60;99.90
8715;DHT22;4394;51.208;8.904;2023-06-10T09:16:25;23.60;99.90
8715;DHT22;4394;51.208;8.904;2023-06-10T09:19:14;23.70;99.90
8715;DHT22;4394;51.208;8.904;2023-06-10T09:22:04;23.80;99.90
8715;DHT22;4394;51.208;8.904;2023-06-10T09:25:01;23.90;99.90
8715;DHT22;4394;51.208;8.904;2023-06-10T09:27:51;23.90;99.90
8715;DHT22;4394;51.208;8.904;2023-06-10T09:30:41;24.00;99.90
8715;DHT22;4394;51.208;8.904;2023-06-10T09:33:31;24.10;99.90
8715;DHT22;4394;51.208;8.904;2023-06-10T09:36:22;24.30;99.90
8715;DHT22;4394;51.208;8.904;2023-06-10T09:39:15;24.70;99.90
8715;DHT22;4394;51.208;8.904;2023-06-10T09:42:15;24.60;99.90
8715;DHT22;4394;51.208;8.904;2023-06-10T09:45:06;24.60;99.90
8715;DHT22;4394;51.208;8.904;2023-06-10T09:47:55;24.60;99.90
8715;DHT22;4394;51.208;8.904;2023-06-10T09:50:45;24.70;99.90
8715;DHT22;4394;51.208;8.904;2023-06-10T09:53:33;24.80;99.90
8715;DHT22;4394;51.208;8.904;2023-06-10T09:56:25;24.80;99.90
8715;DHT22;4394;51.208;8.904;2023-06-10T09:59:28;24.90;99.90
8715;DHT22;4394;51.208;8.904;2023-06-10T10:02:18;25.00;99.90
8715;DHT22;4394;51.208;8.904;2023-06-10T10:05:07;25.10;99.90
8715;DHT22;4394;51.208;8.904;2023-06-10T10:07:57;25.10;99.90
8715;DHT22;4394;51.208;8.904;2023-06-10T10:10:45;25.20;99.90
8715;DHT22;4394;51.208;8.904;2023-06-10T10:13:34;25.40;99.90
8715;DHT22;4394;51.208;8.904;2023-06-10T10:16:35;25.40;99.90
8715;DHT22;4394;51.208;8.904;2023-06-10T10:19:27;25.50;99.90
8715;DHT22;4394;51.208;8.904;2023-06-10T10:22:19;25.50;99.90
8715;DHT22;4394;51.208;8.904;2023-06-10T10:25:11;25.50;99.90
8715;DHT22;4394;51.208;8.904;2023-06-10T10:28:08;25.60;99.90
8715;DHT22;4394;51.208;8.904;2023-06-10T10:31:01;25.80;99.90
8715;DHT22;4394;51.208;8.904;2023-06-10T10:33:55;25.80;99.90
8715;DHT22;4394;51.208;8.904;2023-06-10T10:36:46;25.90;99.90
8715;DHT22;4394;51.208;8.904;2023-06-10T10:39:36;26.20;98.30
8715;DHT22;4394;51.208;8.904;2023-06-10T10:42:26;26.20;99.90
8715;DHT22;4394;51.208;8.904;2023-06-10T10:45:14;26.20;99.90
8715;DHT22;4394;51.208;8.904;2023-06-10T10:48:07;26.20;99.90
8715;DHT22;4394;51.208;8.904;2023-06-10T10:50:58;26.30;99.90
8715;DHT22;4394;51.208;8.904;2023-06-10T10:54:11;26.30;99.80
8715;DHT22;4394;51.208;8.904;2023-06-10T10:57:16;26.40;99.10
8715;DHT22;4394;51.208;8.904;2023-06-10T11:00:08;26.30;99.90
8715;DHT22;4394;51.208;8.904;2023-06-10T11:02:59;26.30;99.30
8715;DHT22;4394;51.208;8.904;2023-06-10T11:05:52;26.30;98.40
8715;DHT22;4394;51.208;8.904;2023-06-10T11:08:46;26.40;99.30
8715;DHT22;4394;51.208;8.904;2023-06-10T11:11:49;26.50;99.80
8715;DHT22;4394;51.208;8.904;2023-06-10T11:14:53;27.00;98.80
8715;DHT22;4394;51.208;8.904;2023-06-10T11:18:07;26.90;98.40
8715;DHT22;4394;51.208;8.904;2023-06-10T11:21:01;26.80;98.60
8715;DHT22;4394;51.208;8.904;2023-06-10T11:23:50;26.90;98.30
8715;DHT22;4394;51.208;8.904;2023-06-10T11:26:43;27.00;98.10
8715;DHT22;4394;51.208;8.904;2023-06-10T11:29:32;27.00;97.80
8715;DHT22;4394;51.208;8.904;2023-06-10T11:32:20;27.10;98.00
8715;DHT22;4394;51.208;8.904;2023-06-10T11:35:10;27.20;96.40
8715;DHT22;4394;51.208;8.904;2023-06-10T11:37:58;27.00;96.60
8715;DHT22;4394;51.208;8.904;2023-06-10T11:40:48;26.80;95.30
8715;DHT22;4394;51.208;8.904;2023-06-10T11:43:36;26.80;94.40
8715;DHT22;4394;51.208;8.904;2023-06-10T11:46:25;26.70;94.60
8715;DHT22;4394;51.208;8.904;2023-06-10T11:49:14;26.70;95.40
8715;DHT22;4394;51.208;8.904;2023-06-10T11:52:06;26.80;94.90
8715;DHT22;4394;51.208;8.904;2023-06-10T11:54:55;26.90;95.70
8715;DHT22;4394;51.208;8.904;2023-06-10T11:57:43;27.00;93.90
8715;DHT22;4394;51.208;8.904;2023-06-10T12:00:31;27.10;94.20
8715;DHT22;4394;51.208;8.904;2023-06-10T12:03:19;27.20;95.40
8715;DHT22;4394;51.208;8.904;2023-06-10T12:06:09;27.40;96.00
8715;DHT22;4394;51.208;8.904;2023-06-10T12:08:58;27.50;94.10
8715;DHT22;4394;51.208;8.904;2023-06-10T12:12:07;28.00;91.20
8715;DHT22;4394;51.208;8.904;2023-06-10T12:14:58;27.70;92.30
8715;DHT22;4394;51.208;8.904;2023-06-10T12:17:47;27.50;93.20
8715;DHT22;4394;51.208;8.904;2023-06-10T12:20:36;27.50;93.90
8715;DHT22;4394;51.208;8.904;2023-06-10T12:23:24;27.60;93.60
8715;DHT22;4394;51.208;8.904;2023-06-10T12:26:14;27.60;93.50
8715;DHT22;4394;51.208;8.904;2023-06-10T12:29:13;27.50;92.60
8715;DHT22;4394;51.208;8.904;2023-06-10T12:32:02;27.50;92.80
8715;DHT22;4394;51.208;8.904;2023-06-10T12:35:02;27.40;93.00
8715;DHT22;4394;51.208;8.904;2023-06-10T12:37:55;27.20;93.00
8715;DHT22;4394;51.208;8.904;2023-06-10T12:40:43;27.20;93.10
8715;DHT22;4394;51.208;8.904;2023-06-10T12:43:33;27.10;92.80
8715;DHT22;4394;51.208;8.904;2023-06-10T12:46:21;27.10;93.40
8715;DHT22;4394;51.208;8.904;2023-06-10T12:49:19;27.00;94.40
8715;DHT22;4394;51.208;8.904;2023-06-10T12:52:07;27.00;95.30
8715;DHT22;4394;51.208;8.904;2023-06-10T12:54:55;27.10;94.90
8715;DHT22;4394;51.208;8.904;2023-06-10T12:57:50;27.30;95.30
8715;DHT22;4394;51.208;8.904;2023-06-10T13:00:40;27.40;95.10
8715;DHT22;4394;51.208;8.904;2023-06-10T13:03:29;27.60;94.50
8715;DHT22;4394;51.208;8.904;2023-06-10T13:06:17;27.60;93.00
8715;DHT22;4394;51.208;8.904;2023-06-10T13:09:06;27.50;92.30
8715;DHT22;4394;51.208;8.904;2023-06-10T13:11:55;27.40;92.90
8715;DHT22;4394;51.208;8.904;2023-06-10T13:14:42;27.40;94.30
8715;DHT22;4394;51.208;8.904;2023-06-10T13:17:32;27.60;95.50
8715;DHT22;4394;51.208;8.904;2023-06-10T13:20:21;27.90;95.50
8715;DHT22;4394;51.208;8.904;2023-06-10T13:23:09;28.00;94.60
8715;DHT22;4394;51.208;8.904;2023-06-10T13:25:57;27.90;93.70
8715;DHT22;4394;51.208;8.904;2023-06-10T13:28:45;27.90;94.00
8715;DHT22;4394;51.208;8.904;2023-06-10T13:31:34;27.80;93.10
8715;DHT22;4394;51.208;8.904;2023-06-10T13:34:23;27.80;93.40
8715;DHT22;4394;51.208;8.904;2023-06-10T13:37:11;27.90;94.80
8715;DHT22;4394;51.208;8.904;2023-06-10T13:40:00;28.20;94.40
8715;DHT22;4394;51.208;8.904;2023-06-10T13:42:48;28.30;94.10
8715;DHT22;4394;51.208;8.904;2023-06-10T13:45:37;28.40;93.70
8715;DHT22;4394;51.208;8.904;2023-06-10T13:48:25;28.30;93.80
8715;DHT22;4394;51.208;8.904;2023-06-10T13:51:15;28.30;94.10
8715;DHT22;4394;51.208;8.904;2023-06-10T13:54:03;28.30;94.20
8715;DHT22;4394;51.208;8.904;2023-06-10T13:56:51;28.30;93.50
8715;DHT22;4394;51.208;8.904;2023-06-10T13:59:39;28.40;93.40
8715;DHT22;4394;51.208;8.904;2023-06-10T14:02:27;28.40;92.90
8715;DHT22;4394;51.208;8.904;2023-06-10T14:05:15;28.40;92.70
8715;DHT22;4394;51.208;8.904;2023-06-10T14:08:05;28.30;92.30
8715;DHT22;4394;51.208;8.904;2023-06-10T14:10:53;28.10;92.80
8715;DHT22;4394;51.208;8.904;2023-06-10T14:13:41;28.00;92.70
8715;DHT22;4394;51.208;8.904;2023-06-10T14:16:29;28.30;91.40
8715;DHT22;4394;51.208;8.904;2023-06-10T14:19:17;28.20;93.00
8715;DHT22;4394;51.208;8.904;2023-06-10T14:22:05;28.00;93.30
8715;DHT22;4394;51.208;8.904;2023-06-10T14:24:55;28.00;94.70
8715;DHT22;4394;51.208;8.904;2023-06-10T14:27:43;28.20;94.50
8715;DHT22;4394;51.208;8.904;2023-06-10T14:30:33;28.40;94.50
8715;DHT22;4394;51.208;8.904;2023-06-10T14:33:21;28.40;92.70
8715;DHT22;4394;51.208;8.904;2023-06-10T14:36:09;28.30;91.90
8715;DHT22;4394;51.208;8.904;2023-06-10T14:38:57;28.10;92.70
8715;DHT22;4394;51.208;8.904;2023-06-10T14:41:47;28.00;93.00
8715;DHT22;4394;51.208;8.904;2023-06-10T14:44:35;27.80;93.60
8715;DHT22;4394;51.208;8.904;2023-06-10T14:47:23;27.80;94.40
8715;DHT22;4394;51.208;8.904;2023-06-10T14:50:12;28.10;94.30
8715;DHT22;4394;51.208;8.904;2023-06-10T14:53:00;28.40;93.60
8715;DHT22;4394;51.208;8.904;2023-06-10T14:55:51;28.50;92.00
8715;DHT22;4394;51.208;8.904;2023-06-10T14:58:40;28.40;90.70
8715;DHT22;4394;51.208;8.904;2023-06-10T15:01:28;28.30;91.50
8715;DHT22;4394;51.208;8.904;2023-06-10T15:04:16;28.40;91.10
8715;DHT22;4394;51.208;8.904;2023-06-10T15:07:09;28.40;90.30
8715;DHT22;4394;51.208;8.904;2023-06-10T15:09:57;28.60;90.50
8715;DHT22;4394;51.208;8.904;2023-06-10T15:12:45;28.80;87.60
8715;DHT22;4394;51.208;8.904;2023-06-10T15:15:34;29.00;86.30
8715;DHT22;4394;51.208;8.904;2023-06-10T15:18:23;29.20;85.00
8715;DHT22;4394;51.208;8.904;2023-06-10T15:21:11;29.40;87.30
8715;DHT22;4394;51.208;8.904;2023-06-10T15:23:59;29.60;85.50
8715;DHT22;4394;51.208;8.904;2023-06-10T15:26:47;29.80;83.90
8715;DHT22;4394;51.208;8.904;2023-06-10T15:29:35;29.90;83.30
8715;DHT22;4394;51.208;8.904;2023-06-10T15:32:24;29.80;81.70
8715;DHT22;4394;51.208;8.904;2023-06-10T15:35:12;30.10;74.50
8715;DHT22;4394;51.208;8.904;2023-06-10T15:38:00;29.80;72.30
8715;DHT22;4394;51.208;8.904;2023-06-10T15:40:48;29.70;74.10
8715;DHT22;4394;51.208;8.904;2023-06-10T15:43:36;29.70;74.70
8715;DHT22;4394;51.208;8.904;2023-06-10T15:46:24;29.70;76.20
8715;DHT22;4394;51.208;8.904;2023-06-10T15:49:14;29.90;75.30
8715;DHT22;4394;51.208;8.904;2023-06-10T15:52:03;30.10;77.00
8715;DHT22;4394;51.208;8.904;2023-06-10T15:54:51;30.10;71.20
8715;DHT22;4394;51.208;8.904;2023-06-10T15:57:39;30.20;72.80
8715;DHT22;4394;51.208;8.904;2023-06-10T16:00:27;30.20;73.10
8715;DHT22;4394;51.208;8.904;2023-06-10T16:03:15;30.30;75.10
8715;DHT22;4394;51.208;8.904;2023-06-10T16:06:05;30.30;73.90
8715;DHT22;4394;51.208;8.904;2023-06-10T16:08:53;30.30;72.90
8715;DHT22;4394;51.208;8.904;2023-06-10T16:11:41;30.60;71.90
8715;DHT22;4394;51.208;8.904;2023-06-10T16:14:29;30.60;72.60
8715;DHT22;4394;51.208;8.904;2023-06-10T16:17:17;30.50;72.30
8715;DHT22;4394;51.208;8.904;2023-06-10T16:20:06;30.50;71.20
8715;DHT22;4394;51.208;8.904;2023-06-10T16:22:56;30.30;72.40
8715;DHT22;4394;51.208;8.904;2023-06-10T16:25:44;30.30;69.70
8715;DHT22;4394;51.208;8.904;2023-06-10T16:28:32;30.30;70.00
8715;DHT22;4394;51.208;8.904;2023-06-10T16:31:20;30.30;69.40
8715;DHT22;4394;51.208;8.904;2023-06-10T16:34:08;30.10;69.70
8715;DHT22;4394;51.208;8.904;2023-06-10T16:36:56;30.10;68.30
8715;DHT22;4394;51.208;8.904;2023-06-10T16:39:46;30.10;66.00
8715;DHT22;4394;51.208;8.904;2023-06-10T16:42:34;30.20;66.90
8715;DHT22;4394;51.208;8.904;2023-06-10T16:45:22;30.20;66.90
8715;DHT22;4394;51.208;8.904;2023-06-10T16:48:10;30.50;64.90
8715;DHT22;4394;51.208;8.904;2023-06-10T16:50:59;30.50;66.50
8715;DHT22;4394;51.208;8.904;2023-06-10T16:53:47;30.50;66.50
8715;DHT22;4394;51.208;8.904;2023-06-10T16:56:37;30.50;67.00
8715;DHT22;4394;51.208;8.904;2023-06-10T16:59:25;30.50;64.70
8715;DHT22;4394;51.208;8.904;2023-06-10T17:02:13;30.50;65.50
8715;DHT22;4394;51.208;8.904;2023-06-10T17:05:01;30.70;66.60
8715;DHT22;4394;51.208;8.904;2023-06-10T17:07:49;30.80;65.60
8715;DHT22;4394;51.208;8.904;2023-06-10T17:10:37;30.70;64.60
8715;DHT22;4394;51.208;8.904;2023-06-10T17:13:26;31.20;62.40
8715;DHT22;4394;51.208;8.904;2023-06-10T17:16:15;31.00;62.50
8715;DHT22;4394;51.208;8.904;2023-06-10T17:19:03;30.90;63.80
8715;DHT22;4394;51.208;8.904;2023-06-10T17:21:52;30.70;63.80
8715;DHT22;4394;51.208;8.904;2023-06-10T17:24:40;30.50;64.70
8715;DHT22;4394;51.208;8.904;2023-06-10T17:27:29;30.30;65.80
8715;DHT22;4394;51.208;8.904;2023-06-10T17:30:18;30.20;68.00
8715;DHT22;4394;51.208;8.904;2023-06-10T17:33:06;30.20;68.40
8715;DHT22;4394;51.208;8.904;2023-06-10T17:35:55;30.10;68.50
8715;DHT22;4394;51.208;8.904;2023-06-10T17:38:43;30.00;70.00
8715;DHT22;4394;51.208;8.904;2023-06-10T17:41:31;29.90;70.30
8715;DHT22;4394;51.208;8.904;2023-06-10T17:44:20;29.90;70.90
8715;DHT22;4394;51.208;8.904;2023-06-10T17:47:12;29.90;70.00
8715;DHT22;4394;51.208;8.904;2023-06-10T17:50:00;29.90;70.90
8715;DHT22;4394;51.208;8.904;2023-06-10T17:52:48;29.90;71.60
8715;DHT22;4394;51.208;8.904;2023-06-10T17:55:36;30.30;71.30
8715;DHT22;4394;51.208;8.904;2023-06-10T17:58:24;30.40;72.00
8715;DHT22;4394;51.208;8.904;2023-06-10T18:01:12;30.60;73.90
8715;DHT22;4394;51.208;8.904;2023-06-10T18:04:03;31.20;73.20
8715;DHT22;4394;51.208;8.904;2023-06-10T18:06:51;32.30;70.90
8715;DHT22;4394;51.208;8.904;2023-06-10T18:09:40;33.70;65.40
8715;DHT22;4394;51.208;8.904;2023-06-10T18:12:28;34.90;60.50
8715;DHT22;4394;51.208;8.904;2023-06-10T18:15:16;36.00;56.50
8715;DHT22;4394;51.208;8.904;2023-06-10T18:18:04;36.30;52.00
8715;DHT22;4394;51.208;8.904;2023-06-10T18:20:54;36.40;52.30
8715;DHT22;4394;51.208;8.904;2023-06-10T18:23:42;36.70;50.80
8715;DHT22;4394;51.208;8.904;2023-06-10T18:26:30;37.20;49.60